createdAt,value
2022-11-26T00:02:30.724Z,102283.19
2022-11-26T00:04:59.390Z,102314.41
2022-11-26T00:07:29.785Z,102304.47
2022-11-26T00:09:58.629Z,102272.25
2022-11-26T00:12:28.376Z,102334.88
2022-11-26T00:14:56.131Z,102359.66
2022-11-26T00:17:23.075Z,102234.16
2022-11-26T00:19:49.769Z,102255.16
2022-11-26T00:22:25.312Z,102285.59
2022-11-26T00:24:53.528Z,102240.63
2022-11-26T00:27:20.970Z,102406.00
2022-11-26T00:29:47.431Z,102291.91
2022-11-26T00:32:24.071Z,102320.81
2022-11-26T00:34:50.603Z,102376.50
2022-11-26T00:37:24.264Z,102308.59
2022-11-26T00:39:51.425Z,102300.53
2022-11-26T00:42:19.099Z,102275.59
2022-11-26T00:44:46.183Z,102336.41
2022-11-26T00:47:12.648Z,102296.59
2022-11-26T00:49:39.294Z,102388.94
2022-11-26T00:52:28.664Z,102308.13
2022-11-26T00:54:55.338Z,102250.88
2022-11-26T00:57:21.915Z,102361.97
2022-11-26T00:59:48.442Z,102383.56
2022-11-26T01:02:15.976Z,102365.34
2022-11-26T01:04:42.447Z,102424.25
2022-11-26T01:07:11.968Z,102269.63
2022-11-26T01:09:38.888Z,102353.47
2022-11-26T01:12:13.524Z,102311.63
2022-11-26T01:14:40.303Z,102317.06
2022-11-26T01:17:10.805Z,102339.50
2022-11-26T01:19:37.443Z,102311.19
2022-11-26T01:22:03.975Z,102294.38
2022-11-26T01:24:30.514Z,102299.25
2022-11-26T01:26:57.031Z,102399.84
2022-11-26T01:29:23.552Z,102321.25
2022-11-26T01:31:50.102Z,102306.69
2022-11-26T01:34:16.663Z,102376.09
2022-11-26T01:36:44.460Z,102335.81
2022-11-26T01:39:17.237Z,102327.06
2022-11-26T01:42:06.337Z,102430.25
2022-11-26T01:44:35.891Z,102356.63
2022-11-26T01:47:19.966Z,102293.03
2022-11-26T01:50:39.284Z,102425.00
2022-11-26T01:53:13.934Z,102280.31
2022-11-26T01:55:47.155Z,102377.44
2022-11-26T01:58:17.994Z,102308.06
2022-11-26T02:00:44.606Z,102306.25
2022-11-26T02:03:12.457Z,102427.56
2022-11-26T02:05:44.635Z,102304.91
2022-11-26T02:08:12.046Z,102402.97
2022-11-26T02:10:38.610Z,102336.91
2022-11-26T02:13:05.755Z,102392.53
2022-11-26T02:15:48.197Z,102338.63
2022-11-26T02:18:15.687Z,102335.09
2022-11-26T02:20:48.277Z,102445.13
2022-11-26T02:23:53.180Z,102441.28
2022-11-26T02:26:54.688Z,102389.84
2022-11-26T02:29:58.873Z,102441.06
2022-11-26T02:32:54.288Z,102372.53
2022-11-26T02:35:23.947Z,102451.19
2022-11-26T02:38:13.974Z,102403.97
2022-11-26T02:40:40.640Z,102374.63
2022-11-26T02:43:07.142Z,102352.78
2022-11-26T02:45:53.303Z,102363.94
2022-11-26T02:48:29.021Z,102459.34
2022-11-26T02:51:00.571Z,102374.31
2022-11-26T02:53:30.854Z,102477.34
2022-11-26T02:56:03.471Z,102482.81
2022-11-26T02:58:32.188Z,102347.34
2022-11-26T03:01:00.579Z,102459.78
2022-11-26T03:03:33.113Z,102433.59
2022-11-26T03:06:09.038Z,102375.78
2022-11-26T03:08:36.251Z,102441.34
2022-11-26T03:11:02.730Z,102355.53
2022-11-26T03:13:29.522Z,102442.16
2022-11-26T03:15:57.452Z,102404.94
2022-11-26T03:18:24.509Z,102466.28
2022-11-26T03:20:52.549Z,102381.81
2022-11-26T03:23:19.564Z,102438.06
2022-11-26T03:25:46.188Z,102429.31
2022-11-26T03:28:12.664Z,102361.81
2022-11-26T03:30:39.264Z,102446.63
2022-11-26T03:33:05.863Z,102468.13
2022-11-26T03:35:33.413Z,102380.81
2022-11-26T03:37:59.953Z,102457.09
2022-11-26T03:40:26.539Z,102503.78
2022-11-26T03:42:52.999Z,102513.47
2022-11-26T03:45:19.694Z,102432.50
2022-11-26T03:47:46.170Z,102396.19
2022-11-26T03:50:12.903Z,102474.19
2022-11-26T03:52:40.448Z,102464.63
2022-11-26T03:55:07.403Z,102424.78
2022-11-26T03:57:33.945Z,102379.25
2022-11-26T04:00:00.892Z,102419.31
2022-11-26T04:02:27.522Z,102414.53
2022-11-26T04:04:54.993Z,102473.53
2022-11-26T04:07:21.653Z,102422.28
2022-11-26T04:09:48.256Z,102382.66
2022-11-26T04:12:14.825Z,102470.56
2022-11-26T04:14:42.369Z,102475.78
2022-11-26T04:17:08.986Z,102482.84
2022-11-26T04:19:35.526Z,102480.97
2022-11-26T04:22:02.058Z,102471.44
2022-11-26T04:24:28.614Z,102499.44
2022-11-26T04:26:55.184Z,102455.75
2022-11-26T04:29:21.751Z,102523.63
2022-11-26T04:31:48.401Z,102498.69
2022-11-26T04:34:14.947Z,102437.28
2022-11-26T04:36:41.556Z,102481.47
2022-11-26T04:39:08.100Z,102425.22
2022-11-26T04:41:36.580Z,102435.69
2022-11-26T04:44:03.141Z,102530.47
2022-11-26T04:46:29.897Z,102461.91
2022-11-26T04:48:57.519Z,102560.22
2022-11-26T04:51:24.087Z,102430.25
2022-11-26T04:53:54.520Z,102447.53
2022-11-26T04:56:23.725Z,102445.59
2022-11-26T04:58:51.270Z,102447.91
2022-11-26T05:01:17.810Z,102506.22
2022-11-26T05:03:44.340Z,102471.47
2022-11-26T05:06:11.592Z,102477.41
2022-11-26T05:08:38.088Z,102518.41
2022-11-26T05:11:04.759Z,102547.34
2022-11-26T05:13:31.269Z,102428.44
2022-11-26T05:15:57.799Z,102479.47
2022-11-26T05:18:24.400Z,102550.91
2022-11-26T05:20:51.916Z,102510.69
2022-11-26T05:23:18.419Z,102489.94
2022-11-26T05:25:44.973Z,102489.28
2022-11-26T05:28:12.513Z,102503.50
2022-11-26T05:30:38.955Z,102474.69
2022-11-26T05:33:05.519Z,102466.13
2022-11-26T05:35:32.039Z,102546.34
2022-11-26T05:37:58.563Z,102447.69
2022-11-26T05:40:25.251Z,102554.44
2022-11-26T05:42:51.751Z,102547.38
2022-11-26T05:45:18.492Z,102471.84
2022-11-26T05:47:45.042Z,102515.34
2022-11-26T05:50:11.959Z,102489.94
2022-11-26T05:52:38.508Z,102478.56
2022-11-26T05:55:05.590Z,102476.72
2022-11-26T05:57:33.111Z,102505.66
2022-11-26T05:59:59.628Z,102524.13
2022-11-26T06:02:27.280Z,102487.44
2022-11-26T06:04:53.939Z,102538.72
2022-11-26T06:07:20.515Z,102504.31
2022-11-26T06:09:47.025Z,102531.78
2022-11-26T06:12:13.637Z,102497.03
2022-11-26T06:14:43.111Z,102572.34
2022-11-26T06:17:10.210Z,102544.88
2022-11-26T06:19:36.735Z,102487.22
2022-11-26T06:22:03.295Z,102582.72
2022-11-26T06:24:29.818Z,102510.91
2022-11-26T06:26:56.365Z,102570.88
2022-11-26T06:29:27.718Z,102592.97
2022-11-26T06:31:55.041Z,102497.34
2022-11-26T06:34:22.010Z,102535.53
2022-11-26T06:36:48.560Z,102574.84
2022-11-26T06:39:15.031Z,102506.59
2022-11-26T06:41:41.628Z,102567.78
2022-11-26T06:44:08.516Z,102547.63
2022-11-26T06:46:35.620Z,102647.47
2022-11-26T06:49:04.107Z,102497.94
2022-11-26T06:51:32.642Z,102633.91
2022-11-26T06:53:59.487Z,102586.03
2022-11-26T06:56:26.021Z,102523.78
2022-11-26T06:58:56.400Z,102528.47
2022-11-26T07:01:26.076Z,102552.63
2022-11-26T07:03:52.937Z,102613.50
2022-11-26T07:06:24.935Z,102557.19
2022-11-26T07:08:52.928Z,102595.03
2022-11-26T07:11:20.508Z,102597.53
2022-11-26T07:13:47.362Z,102636.41
2022-11-26T07:16:14.528Z,102569.72
2022-11-26T07:18:42.492Z,102656.25
2022-11-26T07:21:13.436Z,102597.28
2022-11-26T07:23:40.693Z,102642.91
2022-11-26T07:26:08.926Z,102636.50
2022-11-26T07:28:36.238Z,102638.50
2022-11-26T07:31:22.598Z,102598.06
2022-11-26T07:33:50.193Z,102587.44
2022-11-26T07:36:24.977Z,102634.34
2022-11-26T07:38:56.847Z,102565.97
2022-11-26T07:41:24.722Z,102649.22
2022-11-26T07:43:51.354Z,102595.97
2022-11-26T07:46:21.102Z,102586.28
2022-11-26T07:48:48.227Z,102682.34
2022-11-26T07:51:24.049Z,102538.97
2022-11-26T07:53:51.479Z,102608.22
2022-11-26T07:56:19.102Z,102632.13
2022-11-26T07:58:48.016Z,102636.09
2022-11-26T08:01:20.082Z,102645.31
2022-11-26T08:03:48.432Z,102609.72
2022-11-26T08:06:17.806Z,102626.56
2022-11-26T08:08:44.376Z,102511.47
2022-11-26T08:11:20.450Z,102627.09
2022-11-26T08:13:48.343Z,102664.91
2022-11-26T08:16:15.767Z,102663.19
2022-11-26T08:18:42.735Z,102591.63
2022-11-26T08:21:09.638Z,102674.03
2022-11-26T08:23:36.753Z,102639.22
2022-11-26T08:26:31.393Z,102575.66
2022-11-26T08:28:55.344Z,102630.91
2022-11-26T08:31:22.348Z,102574.13
2022-11-26T08:33:48.951Z,102656.66
2022-11-26T08:36:15.545Z,102662.00
2022-11-26T08:38:43.186Z,102650.75
2022-11-26T08:41:12.336Z,102652.25
2022-11-26T08:44:05.012Z,102591.38
2022-11-26T08:46:26.333Z,102620.31
2022-11-26T08:48:55.560Z,102617.19
2022-11-26T08:51:24.871Z,102581.53
2022-11-26T08:53:51.926Z,102680.63
2022-11-26T08:56:18.981Z,102567.69
2022-11-26T08:58:48.515Z,102666.69
2022-11-26T09:01:16.789Z,102639.19
2022-11-26T09:03:44.051Z,102672.34
2022-11-26T09:06:10.960Z,102605.19
2022-11-26T09:09:10.227Z,102667.06
2022-11-26T09:11:48.901Z,102659.59
2022-11-26T09:14:18.135Z,102685.72
2022-11-26T09:16:44.994Z,102683.53
2022-11-26T09:19:13.493Z,102645.13
2022-11-26T09:21:40.477Z,102604.25
2022-11-26T09:24:07.412Z,102603.63
2022-11-26T09:26:34.835Z,102668.16
2022-11-26T09:29:02.197Z,102631.56
2022-11-26T09:31:29.506Z,102683.44
2022-11-26T09:34:02.802Z,102727.88
2022-11-26T09:36:29.759Z,102647.75
2022-11-26T09:38:57.834Z,102715.50
2022-11-26T09:41:33.946Z,102728.47
2022-11-26T09:44:24.213Z,102670.53
2022-11-26T09:47:13.426Z,102723.19
2022-11-26T09:50:07.713Z,102703.06
2022-11-26T09:53:00.082Z,102668.84
2022-11-26T09:55:32.273Z,102734.84
2022-11-26T09:58:26.560Z,102742.19
2022-11-26T10:00:57.043Z,102660.09
2022-11-26T10:03:30.407Z,102722.63
2022-11-26T10:06:18.907Z,102732.34
2022-11-26T10:09:13.324Z,102729.03
2022-11-26T10:12:10.919Z,102690.16
2022-11-26T10:15:06.572Z,102751.41
2022-11-26T10:17:48.122Z,102737.72
2022-11-26T10:20:33.314Z,102732.69
2022-11-26T10:23:17.960Z,102734.59
2022-11-26T10:25:48.597Z,102703.47
2022-11-26T10:28:31.728Z,102740.38
2022-11-26T10:31:01.309Z,102687.78
2022-11-26T10:33:34.480Z,102706.47
2022-11-26T10:36:02.439Z,102688.56
2022-11-26T10:38:29.064Z,102636.88
2022-11-26T10:40:55.617Z,102646.22
2022-11-26T10:43:24.555Z,102627.13
2022-11-26T10:45:54.435Z,102699.00
2022-11-26T10:48:32.361Z,102694.28
2022-11-26T10:51:13.569Z,102706.78
2022-11-26T10:53:49.403Z,102721.88
2022-11-26T10:56:22.435Z,102696.88
2022-11-26T10:58:51.441Z,102646.91
2022-11-26T11:01:18.343Z,102638.28
2022-11-26T11:04:13.089Z,102633.00
2022-11-26T11:06:43.092Z,102617.38
2022-11-26T11:09:25.730Z,102662.56
2022-11-26T11:12:10.714Z,102620.25
2022-11-26T11:14:42.393Z,102626.53
2022-11-26T11:17:23.265Z,102631.16
2022-11-26T11:19:51.957Z,102659.13
2022-11-26T11:22:22.367Z,102591.97
2022-11-26T11:24:49.225Z,102650.25
2022-11-26T11:27:29.904Z,102669.38
2022-11-26T11:30:01.946Z,102592.31
2022-11-26T11:32:39.241Z,102701.28
2022-11-26T11:35:23.769Z,102617.13
2022-11-26T11:37:55.525Z,102577.88
2022-11-26T11:40:28.851Z,102613.66
2022-11-26T11:42:59.409Z,102622.16
2022-11-26T11:45:33.709Z,102631.53
2022-11-26T11:48:12.284Z,102608.81
2022-11-26T11:50:53.368Z,102608.19
2022-11-26T11:53:59.757Z,102652.34
2022-11-26T11:56:38.414Z,102613.94
2022-11-26T11:59:25.212Z,102696.00
2022-11-26T12:02:15.206Z,102630.53
2022-11-26T12:04:57.759Z,102606.06
2022-11-26T12:07:39.399Z,102584.00
2022-11-26T12:10:20.665Z,102666.53
2022-11-26T12:12:52.376Z,102584.94
2022-11-26T12:15:28.409Z,102610.44
2022-11-26T12:18:09.176Z,102683.72
2022-11-26T12:20:53.776Z,102574.34
2022-11-26T12:23:26.308Z,102669.38
2022-11-26T12:26:12.107Z,102615.59
2022-11-26T12:28:51.671Z,102602.78
2022-11-26T12:31:26.283Z,102591.06
2022-11-26T12:34:07.108Z,102616.81
2022-11-26T12:36:44.464Z,102607.75
2022-11-26T12:39:28.263Z,102627.34
2022-11-26T12:42:15.225Z,102624.97
2022-11-26T12:44:46.038Z,102602.13
2022-11-26T12:47:30.304Z,102584.63
2022-11-26T12:50:21.052Z,102644.72
2022-11-26T12:53:01.153Z,102637.09
2022-11-26T12:55:54.168Z,102567.97
2022-11-26T12:58:30.037Z,102666.53
2022-11-26T13:00:58.328Z,102635.50
2022-11-26T13:03:29.644Z,102558.81
2022-11-26T13:06:14.904Z,102682.06
2022-11-26T13:09:05.536Z,102591.94
2022-11-26T13:12:17.048Z,102659.56
2022-11-26T13:15:00.626Z,102671.19
2022-11-26T13:17:42.979Z,102585.63
2022-11-26T13:20:37.009Z,102645.16
2022-11-26T13:23:11.528Z,102565.81
2022-11-26T13:26:03.214Z,102642.44
2022-11-26T13:28:38.662Z,102639.28
2022-11-26T13:31:41.109Z,102546.03
2022-11-26T13:34:46.447Z,102635.31
2022-11-26T13:37:40.156Z,102618.94
2022-11-26T13:40:06.846Z,102626.53
2022-11-26T13:42:42.482Z,102537.25
2022-11-26T13:45:45.323Z,102604.25
2022-11-26T13:48:33.653Z,102547.78
2022-11-26T13:51:22.104Z,102610.53
2022-11-26T13:54:04.947Z,102540.31
2022-11-26T13:56:32.838Z,102604.84
2022-11-26T13:59:14.036Z,102532.09
2022-11-26T14:01:41.651Z,102525.03
2022-11-26T14:04:10.904Z,102496.50
2022-11-26T14:06:38.707Z,102504.47
2022-11-26T14:09:08.637Z,102571.72
2022-11-26T14:11:41.269Z,102618.94
2022-11-26T14:14:26.035Z,102617.06
2022-11-26T14:17:01.908Z,102620.44
2022-11-26T14:19:40.627Z,102631.69
2022-11-26T14:22:11.129Z,102618.91
2022-11-26T14:24:52.757Z,102553.25
2022-11-26T14:27:22.250Z,102547.50
2022-11-26T14:30:02.341Z,102557.47
2022-11-26T14:32:34.654Z,102595.38
2022-11-26T14:35:01.198Z,102618.81
2022-11-26T14:37:30.175Z,102550.69
2022-11-26T14:40:00.650Z,102495.44
2022-11-26T14:42:29.242Z,102573.47
2022-11-26T14:45:03.571Z,102618.81
2022-11-26T14:47:33.514Z,102612.22
2022-11-26T14:50:03.568Z,102623.75
2022-11-26T14:52:37.116Z,102531.97
2022-11-26T14:55:09.050Z,102614.44
2022-11-26T14:58:09.747Z,102620.91
2022-11-26T15:00:36.756Z,102570.47
2022-11-26T15:03:04.012Z,102559.84
2022-11-26T15:05:40.690Z,102571.22
2022-11-26T15:08:17.907Z,102600.72
2022-11-26T15:11:02.132Z,102542.97
2022-11-26T15:13:43.213Z,102604.59
2022-11-26T15:16:33.739Z,102576.75
2022-11-26T15:19:02.991Z,102475.81
2022-11-26T15:21:29.851Z,102495.22
2022-11-26T15:23:59.336Z,102536.38
2022-11-26T15:26:32.924Z,102433.63
2022-11-26T15:28:59.560Z,102496.31
2022-11-26T15:31:43.025Z,102532.88
2022-11-26T15:34:13.336Z,102547.41
2022-11-26T15:36:40.024Z,102514.97
2022-11-26T15:39:08.252Z,102601.66
2022-11-26T15:41:42.873Z,102494.03
2022-11-26T15:44:23.428Z,102550.72
2022-11-26T15:46:53.625Z,102604.03
2022-11-26T15:49:24.821Z,102499.88
2022-11-26T15:51:57.696Z,102529.28
2022-11-26T15:54:30.867Z,102603.34
2022-11-26T15:57:28.014Z,102605.13
2022-11-26T16:00:16.939Z,102511.97
2022-11-26T16:02:44.977Z,102550.53
2022-11-26T16:05:28.595Z,102516.25
2022-11-26T16:07:58.508Z,102533.34
2022-11-26T16:10:30.996Z,102612.94
2022-11-26T16:13:09.476Z,102624.56
2022-11-26T16:15:44.630Z,102543.75
2022-11-26T16:18:20.023Z,102567.13
2022-11-26T16:20:47.999Z,102552.25
2022-11-26T16:23:28.034Z,102538.72
2022-11-26T16:26:13.150Z,102554.91
2022-11-26T16:28:40.861Z,102502.19
2022-11-26T16:31:08.938Z,102464.06
2022-11-26T16:33:35.516Z,102538.53
2022-11-26T16:36:16.948Z,102484.75
2022-11-26T16:38:43.912Z,102477.31
2022-11-26T16:41:12.594Z,102540.94
2022-11-26T16:43:39.103Z,102474.78
2022-11-26T16:46:15.989Z,102547.13
2022-11-26T16:48:43.845Z,102521.03
2022-11-26T16:51:12.000Z,102546.28
2022-11-26T16:53:39.546Z,102532.22
2022-11-26T16:56:35.990Z,102550.06
2022-11-26T16:59:04.443Z,102531.06
2022-11-26T17:01:33.112Z,102508.59
2022-11-26T17:03:59.613Z,102495.41
2022-11-26T17:06:31.363Z,102616.19
2022-11-26T17:08:57.975Z,102577.81
2022-11-26T17:11:24.508Z,102541.28
2022-11-26T17:13:52.257Z,102617.81
2022-11-26T17:16:21.139Z,102598.81
2022-11-26T17:18:49.915Z,102610.06
2022-11-26T17:21:17.636Z,102571.88
2022-11-26T17:23:44.257Z,102525.63
2022-11-26T17:26:20.819Z,102552.41
2022-11-26T17:28:48.562Z,102463.56
2022-11-26T17:31:15.291Z,102538.38
2022-11-26T17:33:43.053Z,102563.75
2022-11-26T17:36:16.447Z,102498.22
2022-11-26T17:38:43.705Z,102458.63
2022-11-26T17:41:11.299Z,102574.72
2022-11-26T17:43:39.074Z,102588.53
2022-11-26T17:46:19.338Z,102493.09
2022-11-26T17:48:48.233Z,102500.56
2022-11-26T17:51:15.985Z,102518.88
2022-11-26T17:53:44.207Z,102526.34
2022-11-26T17:56:17.315Z,102539.72
2022-11-26T17:58:43.787Z,102505.09
2022-11-26T18:01:10.420Z,102541.22
2022-11-26T18:03:37.972Z,102525.09
2022-11-26T18:06:04.748Z,102470.59
2022-11-26T18:08:31.228Z,102509.22
2022-11-26T18:10:57.703Z,102555.56
2022-11-26T18:13:24.156Z,102515.59
2022-11-26T18:16:00.121Z,102485.53
2022-11-26T18:18:27.227Z,102476.94
2022-11-26T18:20:53.843Z,102514.75
2022-11-26T18:23:20.565Z,102462.16
2022-11-26T18:25:47.454Z,102513.09
2022-11-26T18:28:16.579Z,102403.94
2022-11-26T18:30:44.709Z,102468.44
2022-11-26T18:33:16.270Z,102479.00
2022-11-26T18:35:44.121Z,102479.56
2022-11-26T18:38:11.439Z,102574.78
2022-11-26T18:40:38.408Z,102488.47
2022-11-26T18:43:05.145Z,102485.25
2022-11-26T18:45:32.483Z,102500.84
2022-11-26T18:48:00.343Z,102463.91
2022-11-26T18:50:27.884Z,102518.03
2022-11-26T18:52:58.243Z,102456.63
2022-11-26T18:55:24.983Z,102507.66
2022-11-26T18:57:52.457Z,102486.09
2022-11-26T19:00:20.100Z,102522.34
2022-11-26T19:02:47.806Z,102436.44
2022-11-26T19:05:15.447Z,102435.34
2022-11-26T19:07:42.016Z,102442.69
2022-11-26T19:10:09.311Z,102510.06
2022-11-26T19:12:35.892Z,102430.16
2022-11-26T19:15:02.452Z,102435.19
2022-11-26T19:17:32.238Z,102462.09
2022-11-26T19:19:59.779Z,102448.47
2022-11-26T19:22:26.327Z,102451.00
2022-11-26T19:24:52.848Z,102496.81
2022-11-26T19:27:19.383Z,102519.88
2022-11-26T19:29:45.968Z,102397.13
2022-11-26T19:32:12.430Z,102460.91
2022-11-26T19:34:40.014Z,102459.09
2022-11-26T19:37:07.704Z,102507.25
2022-11-26T19:39:35.242Z,102482.53
2022-11-26T19:42:02.814Z,102476.28
2022-11-26T19:44:30.334Z,102426.59
2022-11-26T19:46:57.030Z,102454.31
2022-11-26T19:49:24.563Z,102486.84
2022-11-26T19:51:52.887Z,102514.69
2022-11-26T19:54:19.634Z,102508.66
2022-11-26T19:56:48.170Z,102449.44
2022-11-26T19:59:16.245Z,102394.34
2022-11-26T20:01:43.843Z,102460.25
2022-11-26T20:04:15.694Z,102463.91
2022-11-26T20:06:43.587Z,102461.09
2022-11-26T20:09:12.686Z,102549.78
2022-11-26T20:11:41.128Z,102537.41
2022-11-26T20:14:11.024Z,102543.16
2022-11-26T20:16:41.329Z,102542.50
2022-11-26T20:19:08.751Z,102523.19
2022-11-26T20:21:36.348Z,102558.53
2022-11-26T20:24:06.378Z,102486.66
2022-11-26T20:26:40.036Z,102467.53
2022-11-26T20:29:10.836Z,102571.84
2022-11-26T20:31:45.682Z,102510.19
2022-11-26T20:34:18.055Z,102479.41
2022-11-26T20:36:45.865Z,102490.28
2022-11-26T20:39:14.808Z,102569.69
2022-11-26T20:41:41.666Z,102545.66
2022-11-26T20:44:08.945Z,102567.78
2022-11-26T20:46:36.556Z,102565.81
2022-11-26T20:49:05.308Z,102558.88
2022-11-26T20:51:33.512Z,102499.06
2022-11-26T20:54:01.943Z,102583.41
2022-11-26T20:56:29.695Z,102526.97
2022-11-26T20:58:56.247Z,102549.78
2022-11-26T21:01:25.622Z,102500.72
2022-11-26T21:03:53.609Z,102529.88
2022-11-26T21:06:29.437Z,102565.56
2022-11-26T21:09:00.192Z,102516.91
2022-11-26T21:11:26.942Z,102543.69
2022-11-26T21:13:54.765Z,102423.94
2022-11-26T21:16:22.376Z,102502.41
2022-11-26T21:18:49.057Z,102462.25
2022-11-26T21:21:17.043Z,102525.19
2022-11-26T21:23:45.095Z,102458.31
2022-11-26T21:26:15.334Z,102488.19
2022-11-26T21:28:43.016Z,102491.66
2022-11-26T21:31:17.788Z,102530.88
2022-11-26T21:33:45.784Z,102441.88
2022-11-26T21:36:16.130Z,102514.44
2022-11-26T21:38:43.352Z,102388.34
2022-11-26T21:41:12.393Z,102397.38
2022-11-26T21:43:40.876Z,102495.13
2022-11-26T21:46:09.631Z,102374.22
2022-11-26T21:48:37.477Z,102378.56
2022-11-26T21:51:09.082Z,102487.75
2022-11-26T21:53:36.911Z,102437.16
2022-11-26T21:56:10.479Z,102444.75
2022-11-26T21:58:37.130Z,102390.69
2022-11-26T22:01:21.901Z,102443.91
2022-11-26T22:03:50.853Z,102386.38
2022-11-26T22:06:19.053Z,102359.78
2022-11-26T22:08:48.636Z,102442.34
2022-11-26T22:11:17.444Z,102422.22
2022-11-26T22:13:46.066Z,102334.53
2022-11-26T22:16:15.230Z,102362.25
2022-11-26T22:18:43.485Z,102456.38
2022-11-26T22:21:14.405Z,102396.78
2022-11-26T22:23:41.635Z,102388.88
2022-11-26T22:26:08.323Z,102385.34
2022-11-26T22:28:35.132Z,102324.81
2022-11-26T22:31:22.199Z,102380.06
2022-11-26T22:33:50.071Z,102317.56
2022-11-26T22:36:16.673Z,102358.06
2022-11-26T22:38:43.194Z,102316.09
2022-11-26T22:41:12.934Z,102326.19
2022-11-26T22:43:39.973Z,102404.53
2022-11-26T22:46:09.419Z,102322.63
2022-11-26T22:48:36.456Z,102321.72
2022-11-26T22:51:03.579Z,102328.81
2022-11-26T22:53:33.195Z,102393.22
2022-11-26T22:56:00.603Z,102253.66
2022-11-26T22:58:27.802Z,102401.88
2022-11-26T23:00:56.641Z,102283.44
2022-11-26T23:03:24.976Z,102252.94
2022-11-26T23:05:51.979Z,102235.59
2022-11-26T23:08:19.371Z,102336.63
2022-11-26T23:10:48.357Z,102307.47
2022-11-26T23:13:16.251Z,102326.28
2022-11-26T23:15:45.067Z,102293.41
2022-11-26T23:18:14.455Z,102366.22
2022-11-26T23:20:42.093Z,102289.22
2022-11-26T23:23:09.241Z,102267.53
2022-11-26T23:25:40.699Z,102264.72
2022-11-26T23:28:07.949Z,102390.94
2022-11-26T23:30:34.891Z,102346.72
2022-11-26T23:33:01.499Z,102288.41
2022-11-26T23:35:28.079Z,102251.13
2022-11-26T23:37:54.634Z,102282.78
2022-11-26T23:40:21.224Z,102323.72
2022-11-26T23:42:47.777Z,102278.31
2022-11-26T23:45:14.332Z,102356.06
2022-11-26T23:47:40.881Z,102327.19
2022-11-26T23:50:08.181Z,102282.53
2022-11-26T23:52:36.107Z,102314.00
2022-11-26T23:55:02.821Z,102335.72
2022-11-26T23:57:29.443Z,102346.63
2022-11-26T23:59:56.056Z,102229.50
